Time;durP1;ratioP1;P1;durP2;ratioP2;P2;SDS_P1;SDS_P2;PMS_P1;PMS_P2;Temp;Humidity;BMP_temperature;BMP_pressure;BME280_temperature;BME280_humidity;BME280_pressure;Samples;Min_cycle;Max_cycle;Signal;HPM_P1;HPM_P2
2021/07/06 00:01:41;;;;;;;4.20;1.88;;;;;;;;;;5024502;28;20124;-75
2021/07/06 00:04:08;;;;;;;3.92;2.10;;;;;;;;;;5026672;28;20018;-75
2021/07/06 00:06:34;;;;;;;3.13;1.80;;;;;;;;;;5026274;28;20424;-77
2021/07/06 00:09:02;;;;;;;3.53;1.90;;;;;;;;;;5024957;28;20022;-75
2021/07/06 00:11:28;;;;;;;3.10;1.90;;;;;;;;;;5026849;28;20041;-75
2021/07/06 00:13:54;;;;;;;5.25;2.25;;;;;;;;;;5025929;28;20044;-76
2021/07/06 00:16:21;;;;;;;4.00;2.13;;;;;;;;;;5026445;28;20059;-77
2021/07/06 00:18:47;;;;;;;4.93;2.28;;;;;;;;;;5024684;28;20381;-76
2021/07/06 00:21:13;;;;;;;3.60;1.90;;;;;;;;;;5026427;28;20034;-74
2021/07/06 00:23:39;;;;;;;3.58;1.80;;;;;;;;;;5026473;28;20662;-77
2021/07/06 00:26:06;;;;;;;2.95;2.22;;;;;;;;;;5025829;28;20113;-77
2021/07/06 00:28:33;;;;;;;3.72;2.17;;;;;;;;;;5026153;28;20022;-75
2021/07/06 00:30:59;;;;;;;4.78;1.90;;;;;;;;;;5024504;28;20033;-74
2021/07/06 00:33:29;;;;;;;3.85;2.38;;;;;;;;;;5021687;28;20060;-78
2021/07/06 00:35:58;;;;;;;3.78;2.13;;;;;;;;;;5019217;28;20042;-77
2021/07/06 00:38:24;;;;;;;5.35;2.40;;;;;;;;;;5025882;28;20041;-75
2021/07/06 00:40:52;;;;;;;4.78;2.15;;;;;;;;;;5025997;28;20104;-75
2021/07/06 00:43:18;;;;;;;5.53;2.35;;;;;;;;;;5024589;28;20029;-74
2021/07/06 00:45:45;;;;;;;5.50;2.55;;;;;;;;;;5025780;28;20034;-76
2021/07/06 00:48:11;;;;;;;4.13;2.40;;;;;;;;;;5026126;28;20029;-75
2021/07/06 00:50:37;;;;;;;3.50;2.20;;;;;;;;;;5026218;28;20559;-77
2021/07/06 00:53:03;;;;;;;17.15;3.47;;;;;;;;;;5026084;28;20053;-76
2021/07/06 00:55:30;;;;;;;3.75;2.50;;;;;;;;;;5024291;28;20112;-76
2021/07/06 00:57:56;;;;;;;4.95;1.98;;;;;;;;;;5025641;28;20023;-74
2021/07/06 01:00:24;;;;;;;3.03;2.20;;;;;;;;;;5025867;28;20104;-74
2021/07/06 01:02:50;;;;;;;6.18;2.63;;;;;;;;;;5025963;28;20026;-77
2021/07/06 01:05:20;;;;;;;3.42;2.33;;;;;;;;;;5020538;28;20037;-74
2021/07/06 01:07:47;;;;;;;6.63;2.20;;;;;;;;;;5025850;28;20515;-75
2021/07/06 01:10:14;;;;;;;5.43;2.58;;;;;;;;;;5025162;28;20030;-76
2021/07/06 01:12:41;;;;;;;2.97;2.20;;;;;;;;;;5025957;28;20026;-74
2021/07/06 01:15:09;;;;;;;4.70;1.92;;;;;;;;;;5026156;28;20103;-74
2021/07/06 01:17:37;;;;;;;3.75;2.30;;;;;;;;;;5027861;28;20108;-77
2021/07/06 01:20:12;;;;;;;5.80;2.33;;;;;;;;;;5027436;28;20041;-75
2021/07/06 01:22:39;;;;;;;5.50;2.35;;;;;;;;;;5028331;28;20700;-75
2021/07/06 01:25:06;;;;;;;4.97;2.60;;;;;;;;;;5024368;28;20026;-74
2021/07/06 01:27:32;;;;;;;11.57;2.88;;;;;;;;;;5027629;28;20033;-75
2021/07/06 01:29:59;;;;;;;4.03;2.03;;;;;;;;;;5027653;28;20024;-77
2021/07/06 01:32:25;;;;;;;6.22;2.35;;;;;;;;;;5028273;28;20072;-75
2021/07/06 01:34:51;;;;;;;3.28;1.90;;;;;;;;;;5027946;28;20030;-75
2021/07/06 01:37:18;;;;;;;3.28;2.00;;;;;;;;;;5029111;28;20025;-74
2021/07/06 01:39:48;;;;;;;5.63;2.13;;;;;;;;;;5028831;28;20030;-75
2021/07/06 01:42:21;;;;;;;3.03;1.98;;;;;;;;;;5028949;28;20018;-78
2021/07/06 01:44:47;;;;;;;2.78;1.83;;;;;;;;;;5027964;28;20037;-77
2021/07/06 01:47:14;;;;;;;2.80;1.60;;;;;;;;;;5028838;28;20120;-75
2021/07/06 01:49:40;;;;;;;5.90;2.20;;;;;;;;;;5029078;28;20045;-75
2021/07/06 01:52:06;;;;;;;4.07;1.75;;;;;;;;;;5028673;28;20060;-77
2021/07/06 01:54:33;;;;;;;3.53;1.83;;;;;;;;;;5028963;28;20137;-75
2021/07/06 01:56:59;;;;;;;7.20;2.55;;;;;;;;;;5027109;28;20018;-75
2021/07/06 01:59:26;;;;;;;3.05;1.70;;;;;;;;;;5028690;28;20107;-77
2021/07/06 02:01:52;;;;;;;3.90;1.55;;;;;;;;;;5028778;28;20474;-74
2021/07/06 02:04:18;;;;;;;3.40;2.22;;;;;;;;;;5027139;28;20026;-75
2021/07/06 02:06:44;;;;;;;5.43;2.47;;;;;;;;;;5028601;28;20128;-75
2021/07/06 02:09:10;;;;;;;4.82;2.20;;;;;;;;;;5028473;28;20033;-76
2021/07/06 02:11:37;;;;;;;5.07;2.13;;;;;;;;;;5028771;28;20026;-74
2021/07/06 02:14:04;;;;;;;6.10;2.28;;;;;;;;;;5028232;28;20040;-75
2021/07/06 02:16:30;;;;;;;6.50;2.35;;;;;;;;;;5026936;28;20037;-75
2021/07/06 02:18:56;;;;;;;7.45;1.85;;;;;;;;;;5028736;28;20370;-75
2021/07/06 02:21:23;;;;;;;7.13;2.38;;;;;;;;;;5027058;28;20112;-74
2021/07/06 02:23:49;;;;;;;6.95;2.00;;;;;;;;;;5027982;28;20378;-78
2021/07/06 02:26:15;;;;;;;6.13;2.08;;;;;;;;;;5027892;28;20432;-78
2021/07/06 02:28:42;;;;;;;8.15;2.33;;;;;;;;;;5027017;28;20026;-75
2021/07/06 02:31:08;;;;;;;6.97;2.03;;;;;;;;;;5028527;28;20024;-75
2021/07/06 02:33:35;;;;;;;5.20;2.33;;;;;;;;;;5027978;28;20025;-75
2021/07/06 02:36:06;;;;;;;3.38;1.85;;;;;;;;;;5026624;28;20021;-76
2021/07/06 02:38:33;;;;;;;4.40;2.00;;;;;;;;;;5028249;28;20139;-77
2021/07/06 02:40:59;;;;;;;3.47;1.77;;;;;;;;;;5028276;28;20532;-74
2021/07/06 02:43:25;;;;;;;4.25;2.22;;;;;;;;;;5026770;28;20025;-74
2021/07/06 02:45:51;;;;;;;5.03;2.17;;;;;;;;;;5028145;28;20168;-75
2021/07/06 02:48:17;;;;;;;2.75;1.77;;;;;;;;;;5027790;28;20414;-75
2021/07/06 02:50:44;;;;;;;3.83;1.88;;;;;;;;;;5026225;28;20044;-75
2021/07/06 02:53:12;;;;;;;4.15;2.08;;;;;;;;;;5027779;28;20021;-77
2021/07/06 02:55:38;;;;;;;3.92;2.00;;;;;;;;;;5027683;28;20034;-75
2021/07/06 02:58:05;;;;;;;4.28;2.15;;;;;;;;;;5027618;28;20026;-75
2021/07/06 03:00:32;;;;;;;5.10;2.00;;;;;;;;;;5025289;28;20394;-74
2021/07/06 03:02:59;;;;;;;4.32;2.00;;;;;;;;;;5021306;28;20040;-74
2021/07/06 03:05:26;;;;;;;2.67;1.95;;;;;;;;;;5022719;28;20026;-74
2021/07/06 03:07:53;;;;;;;3.40;1.80;;;;;;;;;;5022446;28;20496;-74
2021/07/06 03:10:21;;;;;;;4.32;1.90;;;;;;;;;;5021176;28;20033;-75
2021/07/06 03:12:48;;;;;;;4.40;1.77;;;;;;;;;;5022339;28;20035;-75
2021/07/06 03:15:16;;;;;;;2.75;1.77;;;;;;;;;;5022557;28;20619;-74
2021/07/06 03:17:42;;;;;;;3.38;1.98;;;;;;;;;;5022226;28;20091;-75
2021/07/06 03:20:09;;;;;;;5.35;1.95;;;;;;;;;;5022213;28;20536;-74
2021/07/06 03:22:35;;;;;;;4.15;1.77;;;;;;;;;;5020455;28;20037;-75
2021/07/06 03:25:02;;;;;;;5.47;1.90;;;;;;;;;;5021167;28;20033;-74
2021/07/06 03:27:28;;;;;;;3.17;1.77;;;;;;;;;;5022392;28;20029;-75
2021/07/06 03:29:54;;;;;;;7.40;1.80;;;;;;;;;;5022187;28;20076;-75
2021/07/06 03:32:21;;;;;;;2.55;1.60;;;;;;;;;;5020832;28;20034;-74
2021/07/06 03:34:47;;;;;;;2.97;1.70;;;;;;;;;;5022050;28;20458;-74
2021/07/06 03:37:13;;;;;;;7.18;2.17;;;;;;;;;;5021114;28;20033;-75
2021/07/06 03:39:40;;;;;;;4.55;2.08;;;;;;;;;;5021740;28;20029;-74
2021/07/06 03:42:07;;;;;;;2.75;1.83;;;;;;;;;;5022324;28;20037;-74
2021/07/06 03:44:34;;;;;;;5.93;1.77;;;;;;;;;;5020033;28;20060;-74
2021/07/06 03:47:01;;;;;;;3.75;1.85;;;;;;;;;;5021735;28;20087;-74
2021/07/06 03:49:27;;;;;;;4.82;2.30;;;;;;;;;;5020542;28;20030;-74
2021/07/06 03:51:53;;;;;;;4.43;2.40;;;;;;;;;;5020184;28;20021;-74
2021/07/06 03:54:19;;;;;;;4.80;1.85;;;;;;;;;;5021781;28;20083;-74
2021/07/06 03:56:46;;;;;;;5.03;1.85;;;;;;;;;;5020052;28;20034;-75
2021/07/06 03:59:12;;;;;;;4.93;2.22;;;;;;;;;;5021731;28;20022;-74
2021/07/06 04:01:38;;;;;;;5.07;2.17;;;;;;;;;;5021698;28;20029;-74
2021/07/06 04:04:04;;;;;;;4.55;2.05;;;;;;;;;;5021992;28;20033;-74
2021/07/06 04:06:31;;;;;;;4.35;1.90;;;;;;;;;;5021593;28;20742;-74
2021/07/06 04:08:57;;;;;;;7.63;2.65;;;;;;;;;;5019952;28;20864;-74
2021/07/06 04:11:23;;;;;;;5.80;1.90;;;;;;;;;;5021274;28;20060;-73
2021/07/06 04:13:50;;;;;;;8.32;2.40;;;;;;;;;;5021269;28;20034;-74
2021/07/06 04:16:16;;;;;;;3.88;2.00;;;;;;;;;;5022005;28;20033;-76
2021/07/06 04:18:43;;;;;;;8.18;2.58;;;;;;;;;;5021470;28;20025;-73
2021/07/06 04:21:09;;;;;;;4.03;2.03;;;;;;;;;;5020649;28;20029;-75
2021/07/06 04:23:36;;;;;;;3.67;2.28;;;;;;;;;;5020316;28;20025;-75
2021/07/06 04:26:02;;;;;;;10.65;2.08;;;;;;;;;;5021379;28;20079;-74
2021/07/06 04:28:29;;;;;;;4.35;2.15;;;;;;;;;;5021733;28;20116;-74
2021/07/06 04:30:55;;;;;;;3.53;1.75;;;;;;;;;;5021342;28;20107;-74
2021/07/06 04:33:21;;;;;;;5.22;1.77;;;;;;;;;;5020189;28;20038;-74
2021/07/06 04:35:47;;;;;;;4.80;1.75;;;;;;;;;;5021451;28;20029;-74
2021/07/06 04:38:13;;;;;;;4.10;1.83;;;;;;;;;;5021338;28;20141;-73
2021/07/06 04:40:40;;;;;;;7.57;2.33;;;;;;;;;;5021251;28;20643;-75
2021/07/06 04:43:06;;;;;;;5.70;1.85;;;;;;;;;;5020795;28;20041;-75
2021/07/06 04:45:36;;;;;;;6.55;1.90;;;;;;;;;;5019864;28;20091;-74
2021/07/06 04:48:03;;;;;;;5.22;1.95;;;;;;;;;;5021235;28;20041;-74
2021/07/06 04:50:30;;;;;;;4.65;1.90;;;;;;;;;;5025518;28;20116;-74
2021/07/06 04:52:56;;;;;;;5.15;1.95;;;;;;;;;;5025153;28;20037;-73
2021/07/06 04:55:22;;;;;;;6.25;1.92;;;;;;;;;;5025180;28;20449;-76
2021/07/06 04:57:48;;;;;;;7.20;2.10;;;;;;;;;;5023006;28;20388;-74
2021/07/06 05:00:16;;;;;;;5.70;2.10;;;;;;;;;;5025400;28;20036;-74
2021/07/06 05:02:43;;;;;;;8.50;1.98;;;;;;;;;;5025559;28;20112;-75
2021/07/06 05:05:10;;;;;;;4.15;1.70;;;;;;;;;;5024890;28;20173;-75
2021/07/06 05:07:36;;;;;;;8.60;1.73;;;;;;;;;;5022497;28;20033;-80
2021/07/06 05:10:08;;;;;;;7.53;2.10;;;;;;;;;;5024924;28;20025;-76
2021/07/06 05:12:34;;;;;;;3.38;1.65;;;;;;;;;;5023740;28;20038;-79
2021/07/06 05:15:00;;;;;;;3.65;1.63;;;;;;;;;;5024792;28;20049;-78
2021/07/06 05:17:27;;;;;;;4.45;2.15;;;;;;;;;;5022955;28;20501;-77
2021/07/06 05:19:53;;;;;;;5.70;2.08;;;;;;;;;;5022426;28;20030;-76
2021/07/06 05:22:21;;;;;;;7.65;2.10;;;;;;;;;;5024703;28;20124;-78
2021/07/06 05:24:47;;;;;;;8.25;3.00;;;;;;;;;;5024586;28;20450;-77
2021/07/06 05:27:13;;;;;;;7.47;3.20;;;;;;;;;;5024163;28;20120;-76
2021/07/06 05:29:39;;;;;;;8.45;2.65;;;;;;;;;;5024737;28;20014;-75
2021/07/06 05:32:06;;;;;;;6.45;2.75;;;;;;;;;;5023649;28;20039;-77
2021/07/06 05:34:32;;;;;;;4.22;2.00;;;;;;;;;;5024243;28;20378;-78
2021/07/06 05:36:58;;;;;;;5.03;2.08;;;;;;;;;;5024840;28;20034;-77
2021/07/06 05:39:24;;;;;;;7.93;2.63;;;;;;;;;;5024375;28;20037;-77
2021/07/06 05:41:51;;;;;;;3.95;2.22;;;;;;;;;;5023321;28;20021;-78
2021/07/06 05:44:17;;;;;;;4.40;2.00;;;;;;;;;;5024154;28;20029;-75
2021/07/06 05:46:43;;;;;;;4.78;2.00;;;;;;;;;;5024138;28;20029;-75
2021/07/06 05:49:10;;;;;;;4.90;2.38;;;;;;;;;;5024360;28;20105;-77
2021/07/06 05:51:36;;;;;;;5.32;1.83;;;;;;;;;;5024152;28;20029;-78
2021/07/06 05:54:03;;;;;;;6.72;2.60;;;;;;;;;;5022921;28;20355;-78
2021/07/06 05:56:32;;;;;;;5.03;2.22;;;;;;;;;;5024181;28;20025;-77
2021/07/06 05:58:59;;;;;;;7.13;2.25;;;;;;;;;;5023848;28;20032;-73
2021/07/06 06:01:25;;;;;;;5.75;2.20;;;;;;;;;;5022219;28;20599;-74
2021/07/06 06:03:51;;;;;;;4.20;2.08;;;;;;;;;;5024004;28;20172;-74
2021/07/06 06:06:17;;;;;;;5.07;2.40;;;;;;;;;;5023618;28;20025;-75
2021/07/06 06:08:43;;;;;;;2.97;1.83;;;;;;;;;;5023912;28;20037;-75
2021/07/06 06:11:10;;;;;;;3.38;1.80;;;;;;;;;;5022268;28;20018;-78
2021/07/06 06:13:37;;;;;;;4.70;2.28;;;;;;;;;;5023458;28;20484;-78
2021/07/06 06:16:03;;;;;;;4.07;2.00;;;;;;;;;;5023792;28;20049;-74
2021/07/06 06:18:29;;;;;;;3.13;1.92;;;;;;;;;;5022763;28;20025;-74
2021/07/06 06:20:56;;;;;;;7.03;2.28;;;;;;;;;;5023272;28;20025;-75
2021/07/06 06:23:22;;;;;;;8.15;2.67;;;;;;;;;;5023838;28;20026;-75
2021/07/06 06:25:48;;;;;;;5.68;2.22;;;;;;;;;;5022463;28;20301;-76
2021/07/06 06:28:14;;;;;;;5.03;2.08;;;;;;;;;;5023606;28;20037;-74
2021/07/06 06:30:41;;;;;;;6.05;2.70;;;;;;;;;;5023487;28;20053;-76
2021/07/06 06:33:07;;;;;;;7.07;2.15;;;;;;;;;;5023215;28;20037;-75
2021/07/06 06:35:33;;;;;;;6.20;2.40;;;;;;;;;;5022674;28;20052;-76
2021/07/06 06:38:00;;;;;;;6.32;2.35;;;;;;;;;;5023277;28;20033;-76
2021/07/06 06:40:26;;;;;;;4.88;2.10;;;;;;;;;;5023833;28;20040;-76
2021/07/06 06:42:52;;;;;;;4.30;2.13;;;;;;;;;;5021759;28;20037;-76
2021/07/06 06:45:19;;;;;;;7.07;2.50;;;;;;;;;;5023252;28;20033;-77
2021/07/06 06:47:45;;;;;;;6.50;2.25;;;;;;;;;;5012818;28;20108;-76
2021/07/06 06:50:12;;;;;;;5.13;2.33;;;;;;;;;;5015076;28;20024;-75
2021/07/06 06:52:38;;;;;;;6.88;2.28;;;;;;;;;;5022872;28;20510;-74
2021/07/06 06:55:05;;;;;;;8.82;2.45;;;;;;;;;;5022871;28;20684;-74
2021/07/06 06:57:31;;;;;;;6.20;2.33;;;;;;;;;;5018999;28;20032;-77
2021/07/06 06:59:57;;;;;;;3.83;2.25;;;;;;;;;;5021844;28;20035;-75
2021/07/06 07:02:28;;;;;;;6.28;2.42;;;;;;;;;;5017173;28;20058;-75
2021/07/06 07:04:55;;;;;;;5.40;2.10;;;;;;;;;;5025260;28;20485;-75
2021/07/06 07:07:22;;;;;;;4.25;2.20;;;;;;;;;;5022434;28;20131;-75
2021/07/06 07:09:49;;;;;;;3.45;2.00;;;;;;;;;;5022637;28;20018;-75
2021/07/06 07:12:15;;;;;;;4.93;2.40;;;;;;;;;;5027477;28;20031;-75
2021/07/06 07:14:42;;;;;;;4.82;1.98;;;;;;;;;;5026585;28;20072;-75
2021/07/06 07:17:08;;;;;;;6.97;2.40;;;;;;;;;;5026164;28;20583;-75
2021/07/06 07:19:35;;;;;;;14.32;2.65;;;;;;;;;;5021198;28;20567;-74
2021/07/06 07:22:02;;;;;;;5.32;2.42;;;;;;;;;;5022874;28;20044;-75
2021/07/06 07:24:28;;;;;;;5.30;2.00;;;;;;;;;;5022521;28;20029;-75
2021/07/06 07:26:55;;;;;;;5.38;2.33;;;;;;;;;;5020734;28;20132;-74
2021/07/06 07:29:21;;;;;;;9.38;2.58;;;;;;;;;;5022503;28;20022;-77
2021/07/06 07:31:48;;;;;;;4.40;2.22;;;;;;;;;;5022596;28;20093;-77
2021/07/06 07:34:14;;;;;;;5.20;2.40;;;;;;;;;;5022623;28;20561;-77
2021/07/06 07:36:41;;;;;;;3.83;1.92;;;;;;;;;;5020109;28;20634;-78
2021/07/06 07:39:08;;;;;;;8.57;2.22;;;;;;;;;;5018355;28;20048;-75
2021/07/06 07:41:34;;;;;;;4.28;1.75;;;;;;;;;;5020470;28;20532;-75
2021/07/06 07:44:01;;;;;;;2.33;1.52;;;;;;;;;;5022380;28;20116;-76
2021/07/06 07:46:27;;;;;;;5.10;1.95;;;;;;;;;;5021676;28;20041;-74
2021/07/06 07:48:53;;;;;;;3.60;1.95;;;;;;;;;;5021775;28;20065;-72
2021/07/06 07:51:20;;;;;;;3.40;1.85;;;;;;;;;;5021316;28;20025;-75
2021/07/06 07:53:46;;;;;;;3.42;1.67;;;;;;;;;;5020266;28;20393;-78
2021/07/06 07:56:13;;;;;;;4.50;1.70;;;;;;;;;;5021708;28;20029;-73
2021/07/06 07:58:40;;;;;;;4.15;1.88;;;;;;;;;;5021604;28;20120;-73
2021/07/06 08:01:06;;;;;;;4.15;1.70;;;;;;;;;;5021661;28;20417;-73
2021/07/06 08:03:32;;;;;;;3.42;1.58;;;;;;;;;;5019621;28;20128;-76
2021/07/06 08:05:59;;;;;;;6.95;1.92;;;;;;;;;;5020561;28;20116;-75
2021/07/06 08:08:26;;;;;;;4.40;1.73;;;;;;;;;;5021449;28;20029;-72
2021/07/06 08:10:52;;;;;;;5.38;2.10;;;;;;;;;;5021670;28;20033;-72
2021/07/06 08:13:23;;;;;;;4.65;2.03;;;;;;;;;;5021629;28;20021;-75
2021/07/06 08:15:49;;;;;;;5.45;1.88;;;;;;;;;;5019561;28;20045;-75
2021/07/06 08:18:15;;;;;;;5.70;2.10;;;;;;;;;;5021531;28;20398;-72
2021/07/06 08:20:45;;;;;;;5.78;2.10;;;;;;;;;;5024463;28;20100;-75
2021/07/06 08:23:11;;;;;;;12.98;2.95;;;;;;;;;;5028409;28;20136;-74
2021/07/06 08:25:37;;;;;;;9.77;2.22;;;;;;;;;;5024024;28;20033;-73
2021/07/06 08:28:04;;;;;;;6.38;2.53;;;;;;;;;;5028607;28;20422;-72
2021/07/06 08:30:30;;;;;;;2.72;2.10;;;;;;;;;;5024780;28;20026;-74
2021/07/06 08:32:56;;;;;;;4.05;2.20;;;;;;;;;;5027458;28;20024;-74
2021/07/06 08:35:22;;;;;;;3.92;2.40;;;;;;;;;;5025128;28;20108;-72
2021/07/06 08:37:49;;;;;;;3.50;2.50;;;;;;;;;;5024758;28;20029;-73
2021/07/06 08:40:15;;;;;;;3.10;2.25;;;;;;;;;;5023866;28;20022;-72
2021/07/06 08:42:42;;;;;;;5.43;2.20;;;;;;;;;;5026126;28;20061;-73
2021/07/06 08:45:09;;;;;;;6.40;2.83;;;;;;;;;;5031442;28;20449;-74
2021/07/06 08:47:36;;;;;;;3.72;1.95;;;;;;;;;;5025690;28;20033;-76
2021/07/06 08:50:04;;;;;;;3.15;1.52;;;;;;;;;;5028968;28;20094;-75
2021/07/06 08:52:30;;;;;;;7.05;2.55;;;;;;;;;;5025481;28;20109;-77
2021/07/06 08:54:57;;;;;;;5.50;2.10;;;;;;;;;;5029339;28;20715;-77
2021/07/06 08:57:23;;;;;;;5.10;1.92;;;;;;;;;;5020888;28;20053;-74
2021/07/06 08:59:50;;;;;;;4.00;2.00;;;;;;;;;;5027758;28;20025;-75
2021/07/06 09:02:20;;;;;;;4.28;2.00;;;;;;;;;;5025587;28;20021;-75
2021/07/06 09:04:54;;;;;;;3.75;1.70;;;;;;;;;;5026699;28;20104;-76
2021/07/06 09:07:21;;;;;;;5.32;2.35;;;;;;;;;;5023180;28;20045;-76
2021/07/06 09:09:49;;;;;;;27.52;24.42;;;;;;;;;;5026691;28;20087;-75
2021/07/06 09:12:16;;;;;;;21.42;17.67;;;;;;;;;;5022991;28;20654;-76
2021/07/06 09:14:48;;;;;;;27.88;21.08;;;;;;;;;;5025750;28;20599;-73
2021/07/06 09:17:18;;;;;;;17.17;10.43;;;;;;;;;;5028880;28;20157;-73
2021/07/06 09:19:45;;;;;;;21.98;14.57;;;;;;;;;;5014973;28;20034;-76
2021/07/06 09:22:13;;;;;;;12.15;7.53;;;;;;;;;;5020667;28;20032;-76
2021/07/06 09:24:39;;;;;;;7.97;4.75;;;;;;;;;;5018745;28;20033;-74
2021/07/06 09:27:24;;;;;;;6.68;3.97;;;;;;;;;;5019182;28;20413;-72
2021/07/06 09:30:04;;;;;;;12.80;8.73;;;;;;;;;;5020782;28;20029;-73
2021/07/06 09:32:31;;;;;;;6.85;5.13;;;;;;;;;;5018412;28;20158;-75
2021/07/06 09:34:57;;;;;;;12.93;7.50;;;;;;;;;;5021010;28;20096;-75
2021/07/06 09:37:23;;;;;;;9.77;4.28;;;;;;;;;;5023868;28;20030;-76
2021/07/06 09:39:49;;;;;;;6.95;3.67;;;;;;;;;;5024052;28;20065;-76
2021/07/06 09:42:16;;;;;;;8.05;4.35;;;;;;;;;;5021260;28;20809;-75
2021/07/06 09:44:43;;;;;;;8.75;4.47;;;;;;;;;;5023703;28;20735;-75
2021/07/06 09:47:13;;;;;;;10.75;6.00;;;;;;;;;;5022993;28;20038;-75
2021/07/06 09:49:41;;;;;;;6.60;3.40;;;;;;;;;;5023620;28;20032;-76
2021/07/06 09:52:14;;;;;;;5.78;3.95;;;;;;;;;;5022231;28;20472;-76
2021/07/06 09:54:44;;;;;;;5.20;3.08;;;;;;;;;;5023329;28;20029;-77
2021/07/06 09:57:11;;;;;;;9.10;5.95;;;;;;;;;;5018416;28;20619;-77
2021/07/06 09:59:37;;;;;;;11.18;5.55;;;;;;;;;;5021914;28;20043;-77
2021/07/06 10:02:04;;;;;;;7.13;3.85;;;;;;;;;;5023774;28;20025;-77
2021/07/06 10:04:31;;;;;;;4.88;3.25;;;;;;;;;;5023226;28;20040;-75
2021/07/06 10:07:00;;;;;;;8.23;4.53;;;;;;;;;;5023518;28;20049;-74
2021/07/06 10:09:27;;;;;;;7.95;4.38;;;;;;;;;;5022563;28;20026;-75
2021/07/06 10:11:54;;;;;;;4.20;2.72;;;;;;;;;;5023816;28;20044;-75
2021/07/06 10:14:20;;;;;;;17.25;3.15;;;;;;;;;;5023171;28;20087;-76
2021/07/06 10:16:47;;;;;;;5.63;2.60;;;;;;;;;;5023422;28;20033;-72
2021/07/06 10:19:13;;;;;;;6.45;2.67;;;;;;;;;;5021355;28;20076;-74
2021/07/06 10:21:40;;;;;;;7.85;2.67;;;;;;;;;;5022907;28;20079;-75
2021/07/06 10:24:07;;;;;;;7.05;3.60;;;;;;;;;;5022169;28;20373;-74
2021/07/06 10:26:34;;;;;;;7.65;3.60;;;;;;;;;;5023345;28;20025;-74
2021/07/06 10:29:01;;;;;;;7.47;3.65;;;;;;;;;;5022632;28;20085;-75
2021/07/06 10:31:29;;;;;;;5.75;3.20;;;;;;;;;;5021567;28;20466;-75
2021/07/06 10:33:55;;;;;;;5.35;2.97;;;;;;;;;;5023301;28;20072;-75
2021/07/06 10:36:39;;;;;;;7.13;3.78;;;;;;;;;;5022655;28;20418;-75
2021/07/06 10:39:06;;;;;;;4.97;2.92;;;;;;;;;;5023086;28;20029;-75
2021/07/06 10:41:35;;;;;;;6.78;3.10;;;;;;;;;;5022990;28;20026;-74
2021/07/06 10:44:02;;;;;;;8.20;3.15;;;;;;;;;;5021360;28;20025;-75
2021/07/06 10:46:31;;;;;;;6.57;2.90;;;;;;;;;;5021997;28;20034;-75
2021/07/06 10:49:02;;;;;;;6.28;3.40;;;;;;;;;;5022720;28;20025;-75
2021/07/06 10:51:35;;;;;;;6.15;3.10;;;;;;;;;;5023256;28;20099;-75
2021/07/06 10:54:03;;;;;;;6.55;2.88;;;;;;;;;;5022830;28;20033;-76
2021/07/06 10:56:34;;;;;;;9.57;3.53;;;;;;;;;;5020786;28;20029;-76
2021/07/06 10:59:03;;;;;;;6.95;3.65;;;;;;;;;;5022614;28;20144;-78
2021/07/06 11:01:40;;;;;;;4.97;2.65;;;;;;;;;;5022895;28;20040;-78
2021/07/06 11:04:08;;;;;;;4.97;2.85;;;;;;;;;;5020798;28;20030;-76
2021/07/06 11:06:46;;;;;;;13.15;2.90;;;;;;;;;;5022220;28;20045;-77
2021/07/06 11:09:18;;;;;;;4.70;3.25;;;;;;;;;;5022483;28;20543;-76
2021/07/06 11:11:45;;;;;;;6.32;2.53;;;;;;;;;;5022719;28;20033;-79
2021/07/06 11:14:20;;;;;;;4.43;2.75;;;;;;;;;;5020922;28;20366;-78
2021/07/06 11:16:59;;;;;;;7.10;3.08;;;;;;;;;;5022254;28;20030;-78
2021/07/06 11:19:34;;;;;;;5.70;2.28;;;;;;;;;;5019983;28;20111;-77
2021/07/06 11:22:09;;;;;;;8.25;3.05;;;;;;;;;;5022025;28;20040;-77
2021/07/06 11:24:43;;;;;;;7.20;3.20;;;;;;;;;;5021971;28;20025;-78
2021/07/06 11:27:09;;;;;;;5.30;2.33;;;;;;;;;;5020412;28;20057;-72
2021/07/06 11:29:37;;;;;;;7.60;2.90;;;;;;;;;;5023459;28;20030;-75
2021/07/06 11:32:10;;;;;;;8.25;2.90;;;;;;;;;;5022007;28;20055;-75
2021/07/06 11:34:37;;;;;;;5.72;2.63;;;;;;;;;;5021845;28;20092;-74
2021/07/06 11:37:04;;;;;;;3.88;2.30;;;;;;;;;;5021629;28;20426;-74
2021/07/06 11:39:31;;;;;;;6.18;2.90;;;;;;;;;;5021590;28;20033;-76
2021/07/06 11:41:57;;;;;;;6.97;2.75;;;;;;;;;;5020211;28;20033;-78
2021/07/06 11:44:23;;;;;;;5.95;3.03;;;;;;;;;;5022197;28;20025;-76
2021/07/06 11:46:51;;;;;;;4.55;2.55;;;;;;;;;;5021635;28;20026;-75
2021/07/06 11:49:21;;;;;;;5.40;2.47;;;;;;;;;;5021476;28;20069;-75
2021/07/06 11:51:47;;;;;;;5.15;2.47;;;;;;;;;;5021606;28;20055;-78
2021/07/06 11:54:13;;;;;;;4.28;2.05;;;;;;;;;;5021354;28;20022;-75
2021/07/06 11:56:40;;;;;;;4.40;1.98;;;;;;;;;;5020007;28;20401;-77
2021/07/06 11:59:10;;;;;;;4.00;1.92;;;;;;;;;;5021609;28;20029;-77
2021/07/06 12:01:37;;;;;;;4.53;2.70;;;;;;;;;;5021906;28;20648;-74
2021/07/06 12:04:03;;;;;;;6.18;2.45;;;;;;;;;;5019991;28;20266;-74
2021/07/06 12:06:31;;;;;;;5.15;2.60;;;;;;;;;;5021024;28;20025;-76
2021/07/06 12:09:02;;;;;;;6.85;2.70;;;;;;;;;;5021361;28;20021;-75
2021/07/06 12:11:31;;;;;;;7.70;2.72;;;;;;;;;;5021290;28;20103;-75
2021/07/06 12:13:59;;;;;;;7.28;2.88;;;;;;;;;;5021435;28;20036;-75
2021/07/06 12:16:27;;;;;;;6.60;2.40;;;;;;;;;;5019632;28;20116;-73
2021/07/06 12:19:02;;;;;;;6.78;2.40;;;;;;;;;;5021036;28;20176;-76
2021/07/06 12:21:29;;;;;;;6.32;2.92;;;;;;;;;;5020521;28;20060;-75
2021/07/06 12:23:58;;;;;;;5.55;2.67;;;;;;;;;;5020851;28;20025;-76
2021/07/06 12:26:24;;;;;;;5.38;2.85;;;;;;;;;;5020816;28;20120;-76
2021/07/06 12:28:51;;;;;;;6.05;2.70;;;;;;;;;;5019371;28;20025;-77
2021/07/06 12:31:25;;;;;;;7.95;3.20;;;;;;;;;;5019203;28;20021;-75
2021/07/06 12:34:08;;;;;;;5.95;2.78;;;;;;;;;;5020912;28;20032;-75
2021/07/06 12:36:42;;;;;;;5.20;2.00;;;;;;;;;;5020901;28;20041;-76
2021/07/06 12:39:22;;;;;;;6.82;2.53;;;;;;;;;;5020132;28;20132;-76
2021/07/06 12:41:53;;;;;;;9.73;2.70;;;;;;;;;;5021436;28;20243;-77
2021/07/06 12:44:49;;;;;;;5.80;2.58;;;;;;;;;;5021059;28;20010;-77
2021/07/06 12:47:21;;;;;;;5.68;2.63;;;;;;;;;;5008835;28;20091;-76
2021/07/06 12:49:54;;;;;;;8.77;2.65;;;;;;;;;;5021330;28;20017;-77
2021/07/06 12:52:41;;;;;;;2.85;2.10;;;;;;;;;;5021180;28;20044;-77
2021/07/06 12:55:07;;;;;;;9.40;2.70;;;;;;;;;;5014534;28;20033;-76
2021/07/06 12:57:34;;;;;;;5.43;2.83;;;;;;;;;;5020557;28;20124;-76
2021/07/06 13:00:14;;;;;;;5.95;2.17;;;;;;;;;;5019491;28;20048;-76
2021/07/06 13:02:42;;;;;;;73.47;7.50;;;;;;;;;;5020566;28;20033;-76
2021/07/06 13:05:09;;;;;;;5.97;2.55;;;;;;;;;;5019292;28;20029;-76
2021/07/06 13:07:35;;;;;;;3.17;1.85;;;;;;;;;;5020089;28;20054;-76
2021/07/06 13:10:01;;;;;;;7.07;2.38;;;;;;;;;;5018181;28;20022;-77
2021/07/06 13:12:27;;;;;;;11.50;2.78;;;;;;;;;;5018987;28;20425;-76
2021/07/06 13:14:54;;;;;;;12.25;2.25;;;;;;;;;;5015081;28;20033;-76
2021/07/06 13:17:25;;;;;;;4.93;2.10;;;;;;;;;;5023623;28;20029;-77
2021/07/06 13:19:58;;;;;;;4.18;2.13;;;;;;;;;;5020386;28;20029;-75
2021/07/06 13:22:24;;;;;;;7.93;2.25;;;;;;;;;;5018141;28;20088;-77
2021/07/06 13:24:51;;;;;;;8.50;2.35;;;;;;;;;;5018406;28;20041;-77
2021/07/06 13:27:17;;;;;;;10.40;2.47;;;;;;;;;;5020799;28;20065;-77
2021/07/06 13:29:43;;;;;;;22.85;3.20;;;;;;;;;;5018765;28;20155;-75
2021/07/06 13:32:09;;;;;;;10.55;3.15;;;;;;;;;;5017396;28;20091;-75
2021/07/06 13:34:35;;;;;;;7.80;2.33;;;;;;;;;;5012879;28;20026;-76
2021/07/06 13:37:02;;;;;;;8.43;2.20;;;;;;;;;;5011708;28;20053;-75
2021/07/06 13:39:28;;;;;;;9.32;2.47;;;;;;;;;;5012404;28;20053;-76
2021/07/06 13:41:54;;;;;;;5.22;2.17;;;;;;;;;;5015417;28;20504;-76
2021/07/06 13:44:20;;;;;;;5.90;2.10;;;;;;;;;;5020365;28;20053;-75
2021/07/06 13:46:46;;;;;;;7.57;2.53;;;;;;;;;;5012422;28;20118;-75
2021/07/06 13:49:15;;;;;;;6.60;2.22;;;;;;;;;;5012791;28;20026;-76
2021/07/06 13:51:41;;;;;;;4.95;1.83;;;;;;;;;;5013383;28;20045;-77
2021/07/06 13:54:09;;;;;;;5.38;2.40;;;;;;;;;;5011881;28;20275;-75
2021/07/06 13:56:35;;;;;;;4.57;2.28;;;;;;;;;;5011823;28;20037;-73
2021/07/06 13:59:02;;;;;;;4.78;1.88;;;;;;;;;;5026379;28;20026;-73
2021/07/06 14:01:28;;;;;;;7.35;2.13;;;;;;;;;;5026035;28;20120;-73
2021/07/06 14:03:55;;;;;;;7.30;3.60;;;;;;;;;;5027696;28;20021;-73
2021/07/06 14:06:21;;;;;;;5.80;3.42;;;;;;;;;;5024837;28;20543;-71
2021/07/06 14:08:47;;;;;;;5.82;2.72;;;;;;;;;;5025433;28;20029;-71
2021/07/06 14:11:14;;;;;;;9.02;2.63;;;;;;;;;;5026072;28;20075;-73
2021/07/06 14:13:41;;;;;;;6.35;2.42;;;;;;;;;;5026222;28;20037;-72
2021/07/06 14:16:07;;;;;;;4.55;2.25;;;;;;;;;;5025295;28;20041;-73
2021/07/06 14:18:34;;;;;;;4.35;2.40;;;;;;;;;;5021879;28;20075;-71
2021/07/06 14:21:00;;;;;;;3.55;1.80;;;;;;;;;;5022317;28;20029;-71
2021/07/06 14:23:26;;;;;;;4.68;2.20;;;;;;;;;;5023036;28;20039;-70
2021/07/06 14:25:52;;;;;;;5.05;2.20;;;;;;;;;;5023326;28;20596;-70
2021/07/06 14:28:18;;;;;;;11.00;2.50;;;;;;;;;;5013829;28;20025;-72
2021/07/06 14:30:45;;;;;;;7.15;2.60;;;;;;;;;;5023267;28;20025;-73
2021/07/06 14:33:12;;;;;;;5.32;2.00;;;;;;;;;;5023206;28;20026;-71
2021/07/06 14:35:39;;;;;;;5.82;2.20;;;;;;;;;;5023243;28;20104;-71
2021/07/06 14:38:05;;;;;;;2.10;1.60;;;;;;;;;;5021116;28;20029;-71
2021/07/06 14:40:32;;;;;;;6.00;2.42;;;;;;;;;;5023238;28;20568;-72
2021/07/06 14:42:58;;;;;;;4.57;2.35;;;;;;;;;;5022671;28;20033;-72
2021/07/06 14:45:25;;;;;;;4.38;1.70;;;;;;;;;;5023267;28;20021;-73